createdAt,value
2023-05-14T00:02:25.177Z,37.90
2023-05-14T00:04:52.993Z,38.38
2023-05-14T00:07:20.048Z,37.58
2023-05-14T00:09:50.027Z,38.78
2023-05-14T00:12:17.127Z,38.35
2023-05-14T00:14:44.104Z,37.15
2023-05-14T00:17:11.079Z,37.28
2023-05-14T00:19:41.913Z,37.92
2023-05-14T00:22:09.476Z,37.95
2023-05-14T00:24:36.722Z,39.05
2023-05-14T00:27:04.511Z,38.72
2023-05-14T00:29:31.562Z,37.08
2023-05-14T00:31:58.617Z,37.20
2023-05-14T00:34:25.662Z,37.20
2023-05-14T00:36:52.716Z,38.67
2023-05-14T00:39:20.189Z,37.97
2023-05-14T00:41:47.185Z,37.42
2023-05-14T00:44:14.193Z,39.50
2023-05-14T00:46:41.534Z,38.53
2023-05-14T00:49:09.013Z,39.38
2023-05-14T00:51:36.107Z,38.92
2023-05-14T00:54:03.295Z,41.83
2023-05-14T00:56:30.361Z,40.13
2023-05-14T00:58:57.377Z,38.33
2023-05-14T01:01:24.516Z,40.55
2023-05-14T01:03:53.509Z,40.75
2023-05-14T01:06:29.280Z,39.13
2023-05-14T01:09:18.122Z,40.90
2023-05-14T01:12:06.171Z,40.58
2023-05-14T01:14:45.186Z,40.35
2023-05-14T01:17:15.360Z,38.85
2023-05-14T01:19:44.108Z,38.92
2023-05-14T01:22:12.013Z,40.47
2023-05-14T01:24:39.581Z,40.10
2023-05-14T01:27:13.813Z,39.60
2023-05-14T01:29:45.587Z,40.50
2023-05-14T01:32:13.819Z,39.67
2023-05-14T01:34:42.180Z,39.30
2023-05-14T01:37:12.875Z,39.60
2023-05-14T01:39:41.939Z,38.47
2023-05-14T01:42:09.994Z,38.55
2023-05-14T01:44:37.480Z,39.17
2023-05-14T01:47:05.264Z,39.80
2023-05-14T01:49:32.736Z,38.70
2023-05-14T01:52:00.147Z,38.65
2023-05-14T01:54:27.214Z,38.50
2023-05-14T01:56:54.418Z,37.55
2023-05-14T01:59:21.577Z,39.13
2023-05-14T02:01:48.922Z,38.53
2023-05-14T02:04:16.087Z,38.72
2023-05-14T02:06:43.128Z,38.17
2023-05-14T02:09:10.456Z,39.67
2023-05-14T02:11:37.648Z,37.50
2023-05-14T02:14:04.798Z,36.92
2023-05-14T02:16:31.853Z,37.70
2023-05-14T02:18:59.159Z,36.97
2023-05-14T02:21:26.570Z,36.20
2023-05-14T02:23:53.777Z,36.13
2023-05-14T02:26:21.649Z,37.35
2023-05-14T02:28:48.797Z,36.22
2023-05-14T02:31:17.681Z,35.20
2023-05-14T02:33:45.059Z,35.53
2023-05-14T02:36:12.164Z,37.40
2023-05-14T02:38:39.181Z,37.28
2023-05-14T02:41:06.246Z,35.05
2023-05-14T02:43:33.323Z,36.17
2023-05-14T02:46:00.383Z,37.45
2023-05-14T02:48:27.489Z,38.30
2023-05-14T02:50:54.551Z,36.42
2023-05-14T02:53:21.581Z,36.67
2023-05-14T02:55:48.994Z,36.78
2023-05-14T02:58:16.212Z,38.00
2023-05-14T03:00:43.223Z,38.63
2023-05-14T03:03:10.765Z,36.03
2023-05-14T03:05:38.440Z,36.20
2023-05-14T03:08:05.851Z,38.08
2023-05-14T03:10:33.115Z,35.30
2023-05-14T03:13:00.161Z,37.13
2023-05-14T03:15:27.309Z,37.30
2023-05-14T03:17:54.481Z,37.15
2023-05-14T03:20:23.512Z,37.00
2023-05-14T03:22:50.772Z,35.33
2023-05-14T03:25:18.017Z,38.35
2023-05-14T03:27:45.180Z,37.45
2023-05-14T03:30:12.762Z,36.15
2023-05-14T03:32:40.039Z,34.70
2023-05-14T03:35:08.189Z,36.75
2023-05-14T03:37:35.492Z,36.08
2023-05-14T03:40:02.826Z,36.55
2023-05-14T03:42:30.005Z,33.97
2023-05-14T03:44:57.225Z,36.10
2023-05-14T03:47:24.291Z,35.80
2023-05-14T03:49:51.473Z,35.97
2023-05-14T03:52:18.621Z,35.55
2023-05-14T03:54:45.588Z,35.78
2023-05-14T03:57:12.787Z,34.05
2023-05-14T03:59:39.891Z,34.55
2023-05-14T04:02:07.870Z,35.08
2023-05-14T04:04:35.168Z,34.50
2023-05-14T04:07:02.332Z,35.78
2023-05-14T04:09:29.414Z,34.83
2023-05-14T04:11:56.438Z,33.67
2023-05-14T04:14:23.544Z,33.15
2023-05-14T04:16:50.572Z,32.08
2023-05-14T04:19:18.364Z,32.97
2023-05-14T04:21:45.564Z,31.90
2023-05-14T04:24:12.578Z,32.35
2023-05-14T04:26:39.681Z,32.80
2023-05-14T04:29:06.709Z,32.10
2023-05-14T04:31:34.030Z,33.85
2023-05-14T04:34:01.549Z,33.65
2023-05-14T04:36:28.761Z,32.38
2023-05-14T04:38:56.144Z,32.17
2023-05-14T04:41:23.323Z,31.70
2023-05-14T04:43:50.990Z,30.90
2023-05-14T04:46:18.188Z,31.08
2023-05-14T04:48:45.201Z,30.65
2023-05-14T04:51:12.449Z,30.58
2023-05-14T04:53:39.498Z,31.90
2023-05-14T04:56:06.921Z,30.45
2023-05-14T04:58:35.208Z,30.80
2023-05-14T05:01:05.225Z,29.92
2023-05-14T05:03:32.530Z,28.30
2023-05-14T05:05:59.679Z,29.60
2023-05-14T05:08:27.048Z,28.20
2023-05-14T05:10:54.091Z,29.33
2023-05-14T05:13:21.146Z,29.58
2023-05-14T05:15:48.339Z,28.00
2023-05-14T05:18:15.470Z,29.25
2023-05-14T05:20:42.526Z,28.75
2023-05-14T05:23:09.495Z,29.83
2023-05-14T05:25:36.520Z,28.25
2023-05-14T05:28:03.526Z,28.15
2023-05-14T05:30:30.871Z,29.05
2023-05-14T05:32:58.115Z,27.90
2023-05-14T05:35:25.339Z,28.08
2023-05-14T05:37:52.510Z,27.55
2023-05-14T05:40:19.594Z,26.85
2023-05-14T05:42:46.545Z,28.40
2023-05-14T05:45:13.590Z,28.35
2023-05-14T05:47:41.082Z,27.73
2023-05-14T05:50:08.986Z,27.35
2023-05-14T05:52:36.041Z,26.90
2023-05-14T05:55:03.877Z,25.80
2023-05-14T05:57:31.028Z,26.42
2023-05-14T05:59:58.230Z,31.50
2023-05-14T06:02:25.591Z,30.95
2023-05-14T06:04:53.257Z,31.95
2023-05-14T06:07:20.504Z,32.65
2023-05-14T06:09:47.631Z,29.73
2023-05-14T06:12:14.706Z,30.20
2023-05-14T06:14:41.777Z,30.30
2023-05-14T06:17:08.930Z,31.17
2023-05-14T06:19:36.064Z,30.40
2023-05-14T06:22:03.209Z,30.25
2023-05-14T06:24:30.247Z,28.10
2023-05-14T06:26:57.406Z,28.40
2023-05-14T06:29:25.265Z,28.52
2023-05-14T06:31:52.548Z,28.13
2023-05-14T06:34:19.687Z,30.13
2023-05-14T06:36:46.779Z,30.35
2023-05-14T06:39:13.738Z,31.00
2023-05-14T06:41:40.832Z,30.95
2023-05-14T06:44:07.914Z,26.80
2023-05-14T06:46:35.211Z,25.33
2023-05-14T06:49:02.438Z,24.27
2023-05-14T06:51:29.676Z,26.17
2023-05-14T06:53:56.846Z,27.40
2023-05-14T06:56:23.975Z,27.90
2023-05-14T06:58:51.289Z,27.17
2023-05-14T07:01:18.594Z,28.35
2023-05-14T07:03:45.757Z,29.60
2023-05-14T07:06:13.734Z,27.05
2023-05-14T07:08:41.082Z,28.42
2023-05-14T07:11:10.690Z,28.58
2023-05-14T07:13:37.955Z,29.63
2023-05-14T07:16:05.630Z,29.42
2023-05-14T07:18:33.010Z,29.00
2023-05-14T07:21:00.187Z,28.85
2023-05-14T07:23:27.432Z,29.98
2023-05-14T07:25:54.315Z,30.27
2023-05-14T07:28:21.604Z,30.38
2023-05-14T07:30:48.806Z,30.80
2023-05-14T07:33:15.899Z,29.90
2023-05-14T07:35:43.176Z,30.05
2023-05-14T07:38:10.232Z,28.98
2023-05-14T07:40:37.535Z,28.92
2023-05-14T07:43:04.577Z,29.48
2023-05-14T07:45:31.740Z,29.02
2023-05-14T07:47:59.063Z,29.48
2023-05-14T07:50:26.594Z,29.88
2023-05-14T07:52:53.790Z,32.55
2023-05-14T07:55:21.210Z,34.35
2023-05-14T07:57:48.181Z,34.15
2023-05-14T08:00:16.918Z,35.90
2023-05-14T08:02:45.371Z,31.92
2023-05-14T08:05:12.852Z,34.22
2023-05-14T08:07:40.123Z,34.83
2023-05-14T08:10:08.244Z,35.53
2023-05-14T08:12:35.409Z,37.45
2023-05-14T08:15:02.870Z,35.65
2023-05-14T08:17:30.458Z,36.70
2023-05-14T08:19:57.652Z,37.28
2023-05-14T08:22:24.739Z,36.67
2023-05-14T08:24:51.723Z,33.30
2023-05-14T08:27:18.699Z,32.33
2023-05-14T08:29:45.748Z,30.88
2023-05-14T08:32:22.810Z,31.17
2023-05-14T08:34:52.003Z,31.33
2023-05-14T08:37:19.170Z,31.25
2023-05-14T08:39:46.345Z,29.77
2023-05-14T08:42:15.750Z,28.90
2023-05-14T08:44:51.930Z,28.80
2023-05-14T08:47:21.531Z,29.77
2023-05-14T08:49:55.465Z,29.33
2023-05-14T08:52:23.361Z,28.83
2023-05-14T08:54:52.931Z,28.05
2023-05-14T08:57:21.527Z,29.50
2023-05-14T08:59:48.716Z,26.55
2023-05-14T09:02:17.499Z,26.63
2023-05-14T09:04:45.064Z,27.85
2023-05-14T09:07:12.384Z,28.02
2023-05-14T09:09:39.686Z,26.48
2023-05-14T09:12:07.250Z,26.02
2023-05-14T09:14:34.361Z,27.58
2023-05-14T09:17:01.771Z,29.02
2023-05-14T09:19:28.768Z,29.25
2023-05-14T09:21:59.096Z,30.65
2023-05-14T09:24:29.350Z,30.27
2023-05-14T09:26:58.241Z,31.33
2023-05-14T09:29:32.223Z,29.85
2023-05-14T09:32:02.379Z,31.15
2023-05-14T09:34:32.368Z,31.67
2023-05-14T09:37:01.547Z,30.75
2023-05-14T09:39:29.649Z,29.23
2023-05-14T09:41:56.909Z,30.20
2023-05-14T09:44:24.896Z,28.48
2023-05-14T09:46:53.173Z,29.23
2023-05-14T09:49:20.779Z,29.55
2023-05-14T09:51:49.872Z,30.92
2023-05-14T09:54:17.234Z,29.75
2023-05-14T09:56:44.933Z,30.92
2023-05-14T09:59:12.196Z,30.35
2023-05-14T10:01:42.085Z,29.85
2023-05-14T10:04:11.369Z,30.63
2023-05-14T10:06:40.138Z,28.27
2023-05-14T10:09:16.875Z,29.67
2023-05-14T10:11:45.795Z,29.15
2023-05-14T10:14:31.479Z,28.80
2023-05-14T10:19:26.915Z,29.17
2023-05-14T10:21:57.697Z,30.50
2023-05-14T10:24:26.082Z,29.65
2023-05-14T10:26:53.825Z,29.55
2023-05-14T10:29:31.757Z,28.75
2023-05-14T10:31:58.792Z,27.33
2023-05-14T10:34:38.031Z,27.40
2023-05-14T10:37:26.023Z,27.20
2023-05-14T10:39:57.011Z,27.17
2023-05-14T10:42:43.409Z,26.35
2023-05-14T10:45:12.524Z,26.65
2023-05-14T10:47:42.208Z,27.17
2023-05-14T10:50:11.657Z,26.33
2023-05-14T10:52:40.924Z,26.45
2023-05-14T10:55:08.771Z,25.40
2023-05-14T10:57:38.360Z,25.35
2023-05-14T11:00:10.906Z,25.48
2023-05-14T11:02:45.255Z,25.20
2023-05-14T11:05:17.698Z,24.63
2023-05-14T11:07:50.140Z,23.90
2023-05-14T11:10:22.418Z,24.10
2023-05-14T11:12:51.521Z,24.92
2023-05-14T11:15:23.076Z,24.25
2023-05-14T11:17:54.097Z,24.17
2023-05-14T11:20:21.616Z,24.13
2023-05-14T11:22:51.954Z,25.27
2023-05-14T11:25:19.290Z,23.73
2023-05-14T11:27:47.888Z,23.77
2023-05-14T11:30:19.845Z,23.35
2023-05-14T11:32:48.922Z,23.98
2023-05-14T11:35:17.820Z,22.65
2023-05-14T11:37:54.257Z,22.00
2023-05-14T11:40:21.644Z,21.92
2023-05-14T11:42:53.650Z,22.17
2023-05-14T11:45:27.790Z,21.88
2023-05-14T11:47:55.156Z,20.95
2023-05-14T11:50:25.409Z,22.05
2023-05-14T11:52:57.391Z,19.88
2023-05-14T11:55:24.901Z,19.35
2023-05-14T11:57:52.436Z,19.70
2023-05-14T12:00:22.265Z,20.25
2023-05-14T12:02:50.464Z,18.98
2023-05-14T12:05:18.074Z,19.15
2023-05-14T12:07:46.509Z,19.35
2023-05-14T12:10:14.128Z,20.45
2023-05-14T12:12:41.691Z,19.02
2023-05-14T12:15:17.241Z,18.48
2023-05-14T12:17:52.001Z,19.10
2023-05-14T12:20:19.630Z,17.83
2023-05-14T12:22:46.792Z,18.65
2023-05-14T12:25:14.646Z,17.23
2023-05-14T12:27:44.937Z,16.88
2023-05-14T12:30:21.462Z,16.42
2023-05-14T12:32:52.059Z,16.85
2023-05-14T12:35:23.263Z,15.80
2023-05-14T12:37:50.596Z,17.13
2023-05-14T12:40:20.518Z,16.27
2023-05-14T12:42:47.616Z,15.77
2023-05-14T12:45:14.664Z,16.60
2023-05-14T12:47:41.781Z,15.48
2023-05-14T12:50:09.303Z,15.30
2023-05-14T12:52:39.139Z,15.77
2023-05-14T12:55:09.352Z,15.32
2023-05-14T12:57:38.894Z,14.73
2023-05-14T13:00:08.234Z,14.95
2023-05-14T13:02:43.105Z,14.90
2023-05-14T13:05:12.040Z,15.30
2023-05-14T13:07:39.303Z,14.95
2023-05-14T13:10:07.061Z,15.48
2023-05-14T13:12:34.417Z,15.48
2023-05-14T13:15:01.563Z,14.77
2023-05-14T13:17:28.688Z,15.43
2023-05-14T13:19:55.758Z,14.45
2023-05-14T13:22:22.859Z,14.25
2023-05-14T13:24:50.135Z,15.38
2023-05-14T13:27:18.336Z,13.98
2023-05-14T13:29:45.425Z,14.15
2023-05-14T13:32:12.685Z,13.93
2023-05-14T13:34:39.882Z,13.10
2023-05-14T13:37:07.917Z,12.40
2023-05-14T13:39:34.767Z,12.75
2023-05-14T13:42:01.854Z,13.32
2023-05-14T13:44:29.579Z,12.18
2023-05-14T13:46:57.994Z,11.85
2023-05-14T13:49:25.062Z,11.48
2023-05-14T13:51:52.124Z,12.30
2023-05-14T13:54:19.107Z,12.70
2023-05-14T13:56:46.333Z,12.27
2023-05-14T13:59:13.327Z,12.18
2023-05-14T14:01:40.398Z,11.75
2023-05-14T14:04:07.528Z,12.25
2023-05-14T14:06:34.388Z,12.18
2023-05-14T14:09:01.428Z,11.07
2023-05-14T14:11:28.710Z,11.68
2023-05-14T14:13:55.852Z,12.18
2023-05-14T14:16:23.130Z,12.02
2023-05-14T14:18:50.187Z,10.95
2023-05-14T14:21:18.516Z,11.60
2023-05-14T14:23:49.109Z,11.23
2023-05-14T14:26:16.290Z,11.90
2023-05-14T14:28:43.639Z,10.77
2023-05-14T14:31:11.410Z,10.95
2023-05-14T14:33:38.276Z,10.90
2023-05-14T14:36:05.990Z,10.43
2023-05-14T14:38:33.096Z,10.48
2023-05-14T14:41:01.417Z,11.55
2023-05-14T14:43:28.574Z,10.77
2023-05-14T14:45:56.965Z,10.55
2023-05-14T14:48:28.227Z,10.15
2023-05-14T14:50:55.775Z,10.40
2023-05-14T14:53:23.444Z,9.95
2023-05-14T14:55:51.463Z,9.93
2023-05-14T14:58:19.860Z,10.40
2023-05-14T15:00:47.417Z,10.05
2023-05-14T15:03:15.380Z,9.77
2023-05-14T15:05:42.848Z,9.52
2023-05-14T15:08:10.335Z,9.80
2023-05-14T15:10:38.493Z,10.10
2023-05-14T15:13:06.929Z,10.35
2023-05-14T15:15:35.073Z,10.68
2023-05-14T15:18:03.514Z,9.70
2023-05-14T15:20:31.009Z,10.80
2023-05-14T15:22:58.193Z,10.20
2023-05-14T15:25:27.566Z,10.55
2023-05-14T15:27:54.824Z,11.65
2023-05-14T15:30:21.947Z,11.30
2023-05-14T15:32:49.731Z,11.25
2023-05-14T15:35:17.195Z,11.40
2023-05-14T15:37:44.982Z,10.80
2023-05-14T15:40:12.850Z,10.50
2023-05-14T15:42:44.651Z,11.35
2023-05-14T15:45:13.514Z,10.65
2023-05-14T15:47:45.354Z,10.23
2023-05-14T15:50:13.070Z,9.77
2023-05-14T15:52:40.539Z,10.93
2023-05-14T15:55:08.301Z,11.05
2023-05-14T15:57:35.777Z,11.43
2023-05-14T16:00:10.457Z,12.73
2023-05-14T16:02:39.471Z,11.75
2023-05-14T16:05:08.591Z,11.40
2023-05-14T16:07:36.832Z,11.73
2023-05-14T16:10:04.227Z,10.57
2023-05-14T16:12:31.657Z,9.20
2023-05-14T16:14:59.004Z,10.02
2023-05-14T16:17:28.598Z,9.35
2023-05-14T16:19:56.407Z,8.10
2023-05-14T16:22:24.106Z,8.30
2023-05-14T16:24:51.318Z,8.82
2023-05-14T16:27:21.668Z,8.60
2023-05-14T16:29:48.961Z,8.40
2023-05-14T16:32:16.438Z,8.27
2023-05-14T16:34:49.824Z,9.05
2023-05-14T16:37:17.893Z,8.75
2023-05-14T16:39:45.106Z,8.90
2023-05-14T16:42:12.892Z,7.60
2023-05-14T16:44:40.688Z,8.02
2023-05-14T16:47:08.192Z,9.63
2023-05-14T16:49:35.350Z,8.48
2023-05-14T16:52:02.763Z,7.93
2023-05-14T16:54:29.996Z,8.20
2023-05-14T16:56:57.023Z,8.30
2023-05-14T16:59:25.320Z,8.05
2023-05-14T17:01:52.762Z,8.80
2023-05-14T17:04:20.645Z,9.10
2023-05-14T17:06:47.893Z,8.75
2023-05-14T17:09:14.999Z,8.82
2023-05-14T17:11:42.102Z,10.30
2023-05-14T17:14:09.449Z,9.43
2023-05-14T17:16:38.896Z,9.90
2023-05-14T17:19:06.276Z,9.63
2023-05-14T17:21:33.736Z,9.68
2023-05-14T17:24:00.966Z,9.57
2023-05-14T17:26:28.366Z,9.73
2023-05-14T17:28:55.783Z,9.60
2023-05-14T17:31:23.530Z,9.80
2023-05-14T17:33:50.990Z,10.07
2023-05-14T17:36:18.253Z,9.93
2023-05-14T17:38:45.355Z,10.60
2023-05-14T17:41:12.567Z,10.52
2023-05-14T17:43:39.464Z,11.25
2023-05-14T17:46:07.600Z,10.70
2023-05-14T17:48:34.800Z,11.10
2023-05-14T17:51:01.987Z,10.80
2023-05-14T17:53:29.171Z,11.82
2023-05-14T17:55:56.356Z,11.95
2023-05-14T17:58:31.878Z,12.63
2023-05-14T18:00:59.308Z,13.02
2023-05-14T18:03:26.486Z,12.13
2023-05-14T18:05:54.046Z,12.38
2023-05-14T18:08:21.346Z,12.60
2023-05-14T18:10:51.331Z,13.43
2023-05-14T18:13:18.656Z,12.95
2023-05-14T18:15:45.742Z,13.52
2023-05-14T18:18:13.167Z,13.27
2023-05-14T18:20:40.148Z,13.68
2023-05-14T18:23:07.406Z,13.63
2023-05-14T18:25:36.122Z,13.75
2023-05-14T18:28:03.550Z,13.68
2023-05-14T18:30:30.861Z,14.23
2023-05-14T18:32:58.968Z,14.13
2023-05-14T18:35:26.515Z,14.07
2023-05-14T18:37:54.671Z,14.73
2023-05-14T18:40:21.730Z,14.55
2023-05-14T18:42:48.977Z,13.50
2023-05-14T18:45:19.293Z,14.95
2023-05-14T18:47:49.296Z,14.32
2023-05-14T18:50:16.699Z,14.93
2023-05-14T18:52:44.412Z,14.85
2023-05-14T18:55:11.770Z,14.93
2023-05-14T18:57:39.110Z,15.60
2023-05-14T19:00:07.147Z,15.13
2023-05-14T19:02:34.744Z,16.25
2023-05-14T19:05:01.925Z,16.42
2023-05-14T19:07:33.420Z,15.20
2023-05-14T19:10:00.872Z,16.88
2023-05-14T19:12:28.497Z,16.40
2023-05-14T19:14:55.722Z,15.77
2023-05-14T19:17:23.024Z,16.08
2023-05-14T19:19:50.348Z,16.27
2023-05-14T19:22:17.657Z,15.25
2023-05-14T19:24:44.929Z,15.30
2023-05-14T19:27:16.279Z,16.42
2023-05-14T19:29:46.718Z,15.95
2023-05-14T19:32:13.996Z,16.33
2023-05-14T19:34:41.233Z,15.80
2023-05-14T19:37:08.636Z,15.63
2023-05-14T19:39:36.053Z,15.82
2023-05-14T19:42:03.265Z,15.73
2023-05-14T19:44:31.309Z,16.35
2023-05-14T19:46:58.737Z,16.27
2023-05-14T19:49:26.415Z,17.95
2023-05-14T19:51:53.872Z,15.60
2023-05-14T19:54:21.141Z,16.55
2023-05-14T19:56:50.683Z,18.55
2023-05-14T19:59:17.689Z,16.95
2023-05-14T20:01:44.866Z,18.17
2023-05-14T20:04:14.207Z,17.85
2023-05-14T20:06:41.772Z,18.40
2023-05-14T20:09:11.836Z,18.45
2023-05-14T20:11:39.096Z,18.67
2023-05-14T20:14:06.354Z,18.85
2023-05-14T20:16:33.781Z,19.33
2023-05-14T20:19:00.900Z,18.58
2023-05-14T20:21:28.455Z,20.02
2023-05-14T20:23:55.786Z,19.58
2023-05-14T20:26:22.954Z,20.67
2023-05-14T20:28:50.104Z,20.83
2023-05-14T20:31:17.565Z,20.85
2023-05-14T20:33:44.723Z,21.23
2023-05-14T20:36:12.134Z,21.27
2023-05-14T20:38:41.025Z,21.60
2023-05-14T20:41:08.756Z,21.40
2023-05-14T20:43:35.893Z,21.02
2023-05-14T20:46:03.069Z,20.15
2023-05-14T20:48:30.106Z,20.92
2023-05-14T20:50:57.185Z,22.35
2023-05-14T20:53:25.574Z,21.35
2023-05-14T20:55:52.859Z,22.00
2023-05-14T20:58:20.612Z,21.70
2023-05-14T21:00:47.886Z,20.77
2023-05-14T21:03:15.276Z,21.33
2023-05-14T21:05:43.814Z,21.38
2023-05-14T21:08:11.159Z,21.50
2023-05-14T21:10:38.344Z,21.23
2023-05-14T21:13:05.365Z,21.83
2023-05-14T21:15:32.826Z,22.30
2023-05-14T21:18:00.273Z,23.35
2023-05-14T21:20:27.315Z,23.05
2023-05-14T21:22:54.472Z,24.85
2023-05-14T21:25:21.649Z,25.55
2023-05-14T21:27:48.846Z,25.90
2023-05-14T21:30:16.053Z,27.73
2023-05-14T21:32:43.175Z,24.95
2023-05-14T21:35:10.419Z,26.13
2023-05-14T21:37:39.820Z,27.65
2023-05-14T21:40:09.691Z,27.45
2023-05-14T21:42:37.288Z,25.90
2023-05-14T21:45:04.881Z,26.50
2023-05-14T21:47:32.738Z,27.92
2023-05-14T21:49:59.836Z,26.90
2023-05-14T21:52:26.995Z,27.95
2023-05-14T21:54:54.304Z,27.83
2023-05-14T21:57:21.397Z,27.27
2023-05-14T21:59:48.352Z,26.23
2023-05-14T22:02:15.621Z,26.33
2023-05-14T22:04:42.771Z,27.38
2023-05-14T22:07:09.778Z,27.02
2023-05-14T22:09:36.921Z,27.23
2023-05-14T22:12:04.290Z,26.48
2023-05-14T22:14:31.534Z,27.42
2023-05-14T22:16:58.854Z,26.13
2023-05-14T22:19:26.974Z,27.80
2023-05-14T22:21:54.755Z,27.00
2023-05-14T22:24:22.109Z,27.15
2023-05-14T22:26:49.423Z,28.20
2023-05-14T22:29:16.580Z,26.70
2023-05-14T22:31:44.053Z,26.98
2023-05-14T22:34:11.265Z,26.73
2023-05-14T22:36:38.342Z,26.95
2023-05-14T22:39:05.606Z,25.52
2023-05-14T22:41:32.863Z,25.20
2023-05-14T22:44:00.319Z,25.98
2023-05-14T22:46:27.809Z,27.10
2023-05-14T22:48:55.625Z,26.40
2023-05-14T22:51:22.690Z,27.70
2023-05-14T22:53:50.022Z,26.08
2023-05-14T22:56:17.476Z,26.67
2023-05-14T22:58:44.737Z,27.85
2023-05-14T23:01:11.772Z,26.98
2023-05-14T23:03:38.945Z,28.33
2023-05-14T23:06:06.261Z,28.27
2023-05-14T23:08:33.601Z,27.17
2023-05-14T23:11:00.787Z,28.50
2023-05-14T23:13:27.971Z,28.77
2023-05-14T23:15:55.054Z,27.05
2023-05-14T23:18:24.094Z,27.63
2023-05-14T23:20:51.205Z,27.92
2023-05-14T23:23:18.449Z,27.65
2023-05-14T23:25:45.548Z,27.20
2023-05-14T23:28:12.756Z,26.83
2023-05-14T23:30:39.729Z,29.75
2023-05-14T23:33:07.216Z,30.33
2023-05-14T23:35:35.506Z,29.77
2023-05-14T23:38:03.932Z,30.13
2023-05-14T23:40:31.905Z,29.52
2023-05-14T23:43:00.606Z,31.65
2023-05-14T23:45:28.416Z,32.67
2023-05-14T23:47:57.374Z,32.17
2023-05-14T23:50:25.205Z,30.92
2023-05-14T23:52:53.511Z,32.58
2023-05-14T23:55:20.914Z,32.22
2023-05-14T23:57:51.371Z,32.58
